sensor_id;sensor_type;location;lat;lon;timestamp;pressure;altitude;pressure_sealevel;temperature;humidity
79419;BME280;68866;49.902;8.680;'2023-04-03 01:53:09';1011.51;;;3.89;75.0
79419;BME280;68866;49.902;8.680;'2023-04-03 02:03:32';1011.5;;;3.8;75.43
79419;BME280;68866;49.902;8.680;'2023-04-03 02:13:54';1011.55;;;3.7;75.93
79419;BME280;68866;49.902;8.680;'2023-04-03 02:24:15';1011.54;;;3.65;75.76
79419;BME280;68866;49.902;8.680;'2023-04-03 02:45:19';1011.65;;;3.39;77.55
79419;BME280;68866;49.902;8.680;'2023-04-03 02:50:30';1011.67;;;3.29;77.35
79419;BME280;68866;49.902;8.680;'2023-04-03 03:00:57';1011.64;;;3.24;78.11
79419;BME280;68866;49.902;8.680;'2023-04-03 03:11:19';1011.63;;;3.26;79.4
79419;BME280;68866;49.902;8.680;'2023-04-03 03:21:59';1011.61;;;3.25;79.34
79419;BME280;68866;49.902;8.680;'2023-04-03 03:32:21';1011.66;;;3.18;77.68
79419;BME280;68866;49.902;8.680;'2023-04-03 03:42:43';1011.65;;;3.24;78.28
79419;BME280;68866;49.902;8.680;'2023-04-03 03:53:05';1011.71;;;3.28;78.07
79419;BME280;68866;49.902;8.680;'2023-04-03 04:03:27';1011.73;;;3.28;77.67
79419;BME280;68866;49.902;8.680;'2023-04-03 04:13:49';1011.72;;;3.29;78.08
79419;BME280;68866;49.902;8.680;'2023-04-03 04:24:10';1011.73;;;3.32;78.27
79419;BME280;68866;49.902;8.680;'2023-04-03 04:34:32';1011.7;;;3.26;78.48
79419;BME280;68866;49.902;8.680;'2023-04-03 04:44:55';1011.67;;;3.29;78.93
79419;BME280;68866;49.902;8.680;'2023-04-03 04:50:07';1011.63;;;3.28;79.3
79419;BME280;68866;49.902;8.680;'2023-04-03 05:00:30';1011.69;;;3.2;79.69
79419;BME280;68866;49.902;8.680;'2023-04-03 05:10:52';1011.64;;;3.16;80.32
79419;BME280;68866;49.902;8.680;'2023-04-03 05:21:14';1011.59;;;3.17;80.07
79419;BME280;68866;49.902;8.680;'2023-04-03 05:31:36';1011.56;;;3.11;80.44
79419;BME280;68866;49.902;8.680;'2023-04-03 05:41:58';1011.61;;;3.11;81.22
79419;BME280;68866;49.902;8.680;'2023-04-03 05:52:20';1011.64;;;3.12;81.44
79419;BME280;68866;49.902;8.680;'2023-04-03 06:02:43';1011.67;;;3.1;81.7
79419;BME280;68866;49.902;8.680;'2023-04-03 06:13:05';1011.76;;;3.16;81.94
79419;BME280;68866;49.902;8.680;'2023-04-03 06:23:27';1011.68;;;3.17;82.34
79419;BME280;68866;49.902;8.680;'2023-04-03 06:33:49';1011.72;;;3.14;80.97
79419;BME280;68866;49.902;8.680;'2023-04-03 06:44:10';1011.71;;;3.08;80.96
79419;BME280;68866;49.902;8.680;'2023-04-03 06:54:32';1011.82;;;3.02;80.94
79419;BME280;68866;49.902;8.680;'2023-04-03 07:04:54';1011.87;;;2.93;81.29
79419;BME280;68866;49.902;8.680;'2023-04-03 07:10:08';1011.99;;;2.88;80.19
79419;BME280;68866;49.902;8.680;'2023-04-03 07:20:30';1012.02;;;2.89;80.27
79419;BME280;68866;49.902;8.680;'2023-04-03 07:30:53';1012.17;;;2.85;79.39
79419;BME280;68866;49.902;8.680;'2023-04-03 07:41:15';1012.15;;;2.86;78.55
79419;BME280;68866;49.902;8.680;'2023-04-03 07:51:39';1012.28;;;2.88;78.51
79419;BME280;68866;49.902;8.680;'2023-04-03 08:02:01';1012.39;;;3.2;76.82
79419;BME280;68866;49.902;8.680;'2023-04-03 08:12:23';1012.52;;;3.23;75.78
79419;BME280;68866;49.902;8.680;'2023-04-03 08:22:45';1012.6;;;3.33;75.65
79419;BME280;68866;49.902;8.680;'2023-04-03 08:33:07';1012.63;;;3.52;75.7
79419;BME280;68866;49.902;8.680;'2023-04-03 08:43:29';1012.72;;;4.03;73.26
79419;BME280;68866;49.902;8.680;'2023-04-03 08:53:53';1012.77;;;4.67;70.22
79419;BME280;68866;49.902;8.680;'2023-04-03 09:04:15';1012.76;;;5.37;68.86
79419;BME280;68866;49.902;8.680;'2023-04-03 09:14:37';1012.81;;;5.75;65.32
79419;BME280;68866;49.902;8.680;'2023-04-03 09:24:59';1012.97;;;5.49;64.42
79419;BME280;68866;49.902;8.680;'2023-04-03 09:30:11';1013.06;;;5.86;63.05
79419;BME280;68866;49.902;8.680;'2023-04-03 09:40:34';1013.14;;;6.08;60.87
79419;BME280;68866;49.902;8.680;'2023-04-03 09:50:59';1013.15;;;6.12;61.91
79419;BME280;68866;49.902;8.680;'2023-04-03 10:01:21';1013.12;;;6.68;59.97
79419;BME280;68866;49.902;8.680;'2023-04-03 10:11:44';1013.12;;;6.82;59.02
79419;BME280;68866;49.902;8.680;'2023-04-03 10:22:06';1013.06;;;6.9;58.34
79419;BME280;68866;49.902;8.680;'2023-04-03 10:32:28';1013.14;;;6.2;60.0
79419;BME280;68866;49.902;8.680;'2023-04-03 10:43:02';1013.16;;;6.1;61.72
79419;BME280;68866;49.902;8.680;'2023-04-03 10:53:28';1013.17;;;6.15;60.53
79419;BME280;68866;49.902;8.680;'2023-04-03 11:03:50';1013.12;;;6.03;60.88
79419;BME280;68866;49.902;8.680;'2023-04-03 11:14:20';1013.13;;;5.89;59.22
79419;BME280;68866;49.902;8.680;'2023-04-03 11:24:45';1013.07;;;5.82;59.34
79419;BME280;68866;49.902;8.680;'2023-04-03 11:35:18';1013.06;;;6.13;57.48
79419;BME280;68866;49.902;8.680;'2023-04-03 11:40:34';1012.93;;;6.26;56.85
79419;BME280;68866;49.902;8.680;'2023-04-03 11:50:59';1012.98;;;6.23;57.1
79419;BME280;68866;49.902;8.680;'2023-04-03 12:01:27';1012.89;;;6.41;57.94
79419;BME280;68866;49.902;8.680;'2023-04-03 12:11:58';1012.81;;;6.7;56.93
79419;BME280;68866;49.902;8.680;'2023-04-03 12:22:27';1012.82;;;6.58;56.45
79419;BME280;68866;49.902;8.680;'2023-04-03 12:33:02';1012.76;;;6.8;55.64
79419;BME280;68866;49.902;8.680;'2023-04-03 12:43:33';1012.68;;;7.02;54.85
79419;BME280;68866;49.902;8.680;'2023-04-03 12:54:00';1012.69;;;6.99;54.28
79419;BME280;68866;49.902;8.680;'2023-04-03 13:04:27';1012.61;;;7.16;53.16
79419;BME280;68866;49.902;8.680;'2023-04-03 13:14:51';1012.49;;;7.3;53.28
79419;BME280;68866;49.902;8.680;'2023-04-03 13:20:10';1012.45;;;7.38;51.78
79419;BME280;68866;49.902;8.680;'2023-04-03 13:30:38';1012.46;;;7.3;50.89
79419;BME280;68866;49.902;8.680;'2023-04-03 13:41:02';1012.33;;;7.48;51.65
79419;BME280;68866;49.902;8.680;'2023-04-03 13:51:39';1012.25;;;7.64;49.26
79419;BME280;68866;49.902;8.680;'2023-04-03 14:02:02';1012.16;;;7.58;47.64
79419;BME280;68866;49.902;8.680;'2023-04-03 14:12:30';1011.99;;;7.46;44.09
79419;BME280;68866;49.902;8.680;'2023-04-03 14:23:07';1011.91;;;7.25;43.16
79419;BME280;68866;49.902;8.680;'2023-04-03 14:33:42';1011.85;;;7.48;41.46
79419;BME280;68866;49.902;8.680;'2023-04-03 14:44:17';1011.83;;;7.43;40.16
79419;BME280;68866;49.902;8.680;'2023-04-03 14:54:40';1011.7;;;7.46;39.32
79419;BME280;68866;49.902;8.680;'2023-04-03 15:05:07';1011.76;;;7.5;42.01
79419;BME280;68866;49.902;8.680;'2023-04-03 15:10:20';1011.58;;;7.61;42.57
79419;BME280;68866;49.902;8.680;'2023-04-03 15:20:42';1011.66;;;7.71;43.73
79419;BME280;68866;49.902;8.680;'2023-04-03 15:31:08';1011.58;;;7.63;44.77
79419;BME280;68866;49.902;8.680;'2023-04-03 15:41:33';1011.38;;;7.68;45.01
79419;BME280;68866;49.902;8.680;'2023-04-03 15:51:54';1011.51;;;7.79;43.56
79419;BME280;68866;49.902;8.680;'2023-04-03 16:02:19';1011.45;;;7.87;42.9
79419;BME280;68866;49.902;8.680;'2023-04-03 16:12:41';1011.31;;;7.86;44.3
79419;BME280;68866;49.902;8.680;'2023-04-03 16:23:03';1011.3;;;7.89;44.56
79419;BME280;68866;49.902;8.680;'2023-04-03 16:33:25';1011.17;;;7.71;44.52
79419;BME280;68866;49.902;8.680;'2023-04-03 16:43:49';1011.06;;;7.78;45.93
79419;BME280;68866;49.902;8.680;'2023-04-03 16:54:14';1011.06;;;7.83;46.27
79419;BME280;68866;49.902;8.680;'2023-04-03 17:04:36';1011.02;;;7.86;45.53
79419;BME280;68866;49.902;8.680;'2023-04-03 17:14:58';1011.0;;;7.78;46.29
79419;BME280;68866;49.902;8.680;'2023-04-03 17:20:13';1011.12;;;7.73;45.72
79419;BME280;68866;49.902;8.680;'2023-04-03 17:30:38';1011.12;;;7.68;46.54
79419;BME280;68866;49.902;8.680;'2023-04-03 17:41:00';1011.04;;;7.61;46.24
79419;BME280;68866;49.902;8.680;'2023-04-03 17:51:22';1011.15;;;7.62;46.81
79419;BME280;68866;49.902;8.680;'2023-04-03 18:01:44';1011.08;;;7.6;47.14
79419;BME280;68866;49.902;8.680;'2023-04-03 18:12:06';1011.02;;;7.51;46.43
79419;BME280;68866;49.902;8.680;'2023-04-03 18:22:29';1011.09;;;7.39;46.44
79419;BME280;68866;49.902;8.680;'2023-04-03 18:32:51';1011.17;;;7.23;47.15
79419;BME280;68866;49.902;8.680;'2023-04-03 18:43:13';1011.14;;;7.16;47.38
79419;BME280;68866;49.902;8.680;'2023-04-03 18:53:36';1011.24;;;7.05;48.08
79419;BME280;68866;49.902;8.680;'2023-04-03 19:03:58';1011.25;;;6.86;48.0
79419;BME280;68866;49.902;8.680;'2023-04-03 19:14:20';1011.26;;;6.68;48.79
79419;BME280;68866;49.902;8.680;'2023-04-03 19:24:44';1011.31;;;6.52;49.57
79419;BME280;68866;49.902;8.680;'2023-04-03 19:35:07';1011.46;;;6.33;49.71
79419;BME280;68866;49.902;8.680;'2023-04-03 19:40:19';1011.48;;;6.08;49.57
79419;BME280;68866;49.902;8.680;'2023-04-03 19:50:41';1011.59;;;5.85;49.87
79419;BME280;68866;49.902;8.680;'2023-04-03 20:01:08';1011.72;;;5.68;50.49
79419;BME280;68866;49.902;8.680;'2023-04-03 20:11:30';1011.77;;;5.36;50.9
79419;BME280;68866;49.902;8.680;'2023-04-03 20:21:56';1011.83;;;5.15;50.85
79419;BME280;68866;49.902;8.680;'2023-04-03 20:32:20';1011.95;;;5.01;51.96
79419;BME280;68866;49.902;8.680;'2023-04-03 20:42:43';1011.95;;;4.75;52.57
79419;BME280;68866;49.902;8.680;'2023-04-03 20:53:06';1012.07;;;4.56;53.38
79419;BME280;68866;49.902;8.680;'2023-04-03 21:03:31';1012.26;;;4.45;53.86
79419;BME280;68866;49.902;8.680;'2023-04-03 21:13:52';1012.32;;;4.2;54.23
79419;BME280;68866;49.902;8.680;'2023-04-03 21:24:14';1012.35;;;4.06;54.9
79419;BME280;68866;49.902;8.680;'2023-04-03 21:34:36';1012.46;;;3.97;55.52
79419;BME280;68866;49.902;8.680;'2023-04-03 21:44:58';1012.47;;;3.77;56.12
79419;BME280;68866;49.902;8.680;'2023-04-03 21:50:10';1012.53;;;3.63;56.45
79419;BME280;68866;49.902;8.680;'2023-04-03 22:00:32';1012.57;;;3.58;57.03
79419;BME280;68866;49.902;8.680;'2023-04-03 22:10:55';1012.59;;;3.32;57.51
79419;BME280;68866;49.902;8.680;'2023-04-03 22:21:20';1012.58;;;3.18;58.35
79419;BME280;68866;49.902;8.680;'2023-04-03 22:31:43';1012.59;;;3.02;58.87
79419;BME280;68866;49.902;8.680;'2023-04-03 22:42:05';1012.59;;;2.82;59.67
79419;BME280;68866;49.902;8.680;'2023-04-03 22:52:27';1012.63;;;2.7;59.86
79419;BME280;68866;49.902;8.680;'2023-04-03 23:13:29';1012.62;;;2.47;60.06
79419;BME280;68866;49.902;8.680;'2023-04-03 23:23:53';1012.68;;;2.34;60.69
79419;BME280;68866;49.902;8.680;'2023-04-03 23:34:15';1012.68;;;2.23;60.76
79419;BME280;68866;49.902;8.680;'2023-04-03 23:44:37';1012.67;;;2.08;61.07
79419;BME280;68866;49.902;8.680;'2023-04-03 23:54:59';1012.64;;;1.98;61.54
79419;BME280;68866;49.902;8.680;'2023-04-04 00:00:12';1012.57;;;1.86;61.7
79419;BME280;68866;49.902;8.680;'2023-04-04 00:10:34';1012.53;;;1.71;61.83
79419;BME280;68866;49.902;8.680;'2023-04-04 00:20:56';1012.55;;;1.58;62.21
79419;BME280;68866;49.902;8.680;'2023-04-04 00:31:17';1012.54;;;1.46;62.09
79419;BME280;68866;49.902;8.680;'2023-04-04 00:41:39';1012.47;;;1.32;63.03
79419;BME280;68866;49.902;8.680;'2023-04-04 00:52:01';1012.54;;;1.22;63.18
79419;BME280;68866;49.902;8.680;'2023-04-04 01:02:23';1012.52;;;1.06;63.31
79419;BME280;68866;49.902;8.680;'2023-04-04 01:12:45';1012.51;;;0.92;63.79
79419;BME280;68866;49.902;8.680;'2023-04-04 01:23:07';1012.57;;;0.82;64.22
79419;BME280;68866;49.902;8.680;'2023-04-04 01:33:30';1012.65;;;0.75;64.1
79419;BME280;68866;49.902;8.680;'2023-04-04 01:43:52';1012.69;;;0.61;64.58
